Time;durP1;ratioP1;P1;durP2;ratioP2;P2;SDS_P1;SDS_P2;PMS_P1;PMS_P2;Temp;Humidity;BMP_temperature;BMP_pressure;BME280_temperature;BME280_humidity;BME280_pressure;Samples;Min_cycle;Max_cycle;Signal;HPM_P1;HPM_P2
2023/01/01 00:03:58;;;;;;;;;;;15.50;99.90;;;;;;8375729;28;19931;-74
2023/01/01 00:08:00;;;;;;;;;;;15.50;99.90;;;;;;8387579;28;19969;-74
2023/01/01 00:12:05;;;;;;;;;;;15.40;99.90;;;;;;8387462;28;20294;-74
2023/01/01 00:16:08;;;;;;;;;;;15.40;99.90;;;;;;8375522;28;20039;-73
2023/01/01 00:20:10;;;;;;;;;;;15.40;99.90;;;;;;8374482;28;20022;-73
2023/01/01 00:24:13;;;;;;;;;;;15.40;99.90;;;;;;8399772;28;19939;-73
2023/01/01 00:28:15;;;;;;;;;;;15.40;99.90;;;;;;8390063;28;20485;-74
2023/01/01 00:32:16;;;;;;;;;;;15.40;99.90;;;;;;8388279;28;19929;-73
2023/01/01 00:36:24;;;;;;;;;;;15.40;99.90;;;;;;8391398;28;20396;-73
2023/01/01 00:40:25;;;;;;;;;;;15.40;99.90;;;;;;8382187;28;19929;-74
2023/01/01 00:44:27;;;;;;;;;;;15.50;99.90;;;;;;8379703;28;19928;-73
2023/01/01 00:48:29;;;;;;;;;;;15.50;99.90;;;;;;8387839;28;19928;-73
2023/01/01 00:52:30;;;;;;;;;;;15.50;99.90;;;;;;8388025;28;20283;-73
2023/01/01 00:56:32;;;;;;;;;;;15.50;99.90;;;;;;8392722;28;19972;-74
2023/01/01 01:00:34;;;;;;;;;;;15.50;99.90;;;;;;8381258;28;19975;-73
2023/01/01 01:04:35;;;;;;;;;;;15.50;99.90;;;;;;8382168;28;19930;-74
2023/01/01 01:08:38;;;;;;;;;;;15.50;99.90;;;;;;8387104;28;19979;-74
2023/01/01 01:12:40;;;;;;;;;;;15.50;99.90;;;;;;8388797;28;20311;-73
2023/01/01 01:16:41;;;;;;;;;;;15.50;99.90;;;;;;8385413;28;20292;-73
2023/01/01 01:20:48;;;;;;;;;;;15.50;99.90;;;;;;8390892;28;19932;-73
2023/01/01 01:24:50;;;;;;;;;;;15.50;99.90;;;;;;8370800;28;20287;-73
2023/01/01 01:28:52;;;;;;;;;;;15.40;99.90;;;;;;8384451;28;20020;-74
2023/01/01 01:32:53;;;;;;;;;;;15.30;99.90;;;;;;8389115;28;20291;-74
2023/01/01 01:36:55;;;;;;;;;;;15.00;99.90;;;;;;8389178;28;20387;-73
2023/01/01 01:40:57;;;;;;;;;;;14.80;99.90;;;;;;8375341;28;20404;-73
2023/01/01 01:45:00;;;;;;;;;;;14.70;99.90;;;;;;8381135;28;19935;-74
2023/01/01 01:49:12;;;;;;;;;;;14.70;99.90;;;;;;8370987;28;19935;-73
2023/01/01 01:53:23;;;;;;;;;;;14.80;99.90;;;;;;8376855;28;19924;-73
2023/01/01 01:57:25;;;;;;;;;;;14.80;99.90;;;;;;8385952;28;19924;-74
2023/01/01 02:01:27;;;;;;;;;;;14.80;99.90;;;;;;8379980;28;20335;-74
2023/01/01 02:05:29;;;;;;;;;;;14.70;99.90;;;;;;8388615;28;19928;-74
2023/01/01 02:09:31;;;;;;;;;;;14.80;99.90;;;;;;8387697;28;19929;-74
2023/01/01 02:13:32;;;;;;;;;;;14.80;99.90;;;;;;8385511;28;19973;-74
2023/01/01 02:17:38;;;;;;;;;;;14.80;99.90;;;;;;8386209;28;19942;-74
2023/01/01 02:21:56;;;;;;;;;;;14.80;99.90;;;;;;8373149;28;20344;-73
2023/01/01 02:26:09;;;;;;;;;;;14.80;99.90;;;;;;8380994;28;20368;-74
2023/01/01 02:30:11;;;;;;;;;;;14.80;99.90;;;;;;8389733;28;19929;-74
2023/01/01 02:34:15;;;;;;;;;;;14.80;99.90;;;;;;8391119;28;19979;-73
2023/01/01 02:38:20;;;;;;;;;;;14.70;99.90;;;;;;8386407;28;19982;-74
2023/01/01 02:42:26;;;;;;;;;;;14.70;99.90;;;;;;8365673;28;20274;-74
2023/01/01 02:46:31;;;;;;;;;;;14.80;99.90;;;;;;8396358;28;19928;-73
2023/01/01 02:50:33;;;;;;;;;;;14.70;99.90;;;;;;8396994;28;19928;-74
2023/01/01 02:54:52;;;;;;;;;;;14.70;99.90;;;;;;8377872;28;20402;-74
2023/01/01 03:03:38;;;;;;;;;;;14.70;99.90;;;;;;8389903;28;19976;-74
2023/01/01 03:07:43;;;;;;;;;;;14.70;99.90;;;;;;8383670;28;19982;-74
2023/01/01 03:11:45;;;;;;;;;;;14.70;99.90;;;;;;8369428;28;20303;-75
2023/01/01 03:15:50;;;;;;;;;;;14.80;99.90;;;;;;8381654;28;19940;-73
2023/01/01 03:19:54;;;;;;;;;;;14.80;99.90;;;;;;8387074;28;19924;-74
2023/01/01 03:23:56;;;;;;;;;;;14.80;99.90;;;;;;8386718;28;20460;-73
2023/01/01 03:27:59;;;;;;;;;;;14.80;99.90;;;;;;8394385;28;20011;-74
2023/01/01 03:32:02;;;;;;;;;;;14.80;99.90;;;;;;8398963;28;19967;-74
2023/01/01 03:36:06;;;;;;;;;;;14.90;99.90;;;;;;8390620;28;20307;-74
2023/01/01 03:40:09;;;;;;;;;;;14.90;99.90;;;;;;8386405;28;19976;-74
2023/01/01 03:44:14;;;;;;;;;;;14.90;99.90;;;;;;8384740;28;20268;-74
2023/01/01 03:48:17;;;;;;;;;;;14.90;99.90;;;;;;8368630;28;19931;-73
2023/01/01 03:52:38;;;;;;;;;;;14.80;99.90;;;;;;8393823;28;20423;-74
2023/01/01 03:56:45;;;;;;;;;;;14.80;99.90;;;;;;8388417;28;19983;-74
2023/01/01 04:00:56;;;;;;;;;;;14.90;99.90;;;;;;8368925;28;19925;-74
2023/01/01 04:04:59;;;;;;;;;;;14.90;99.90;;;;;;8373541;28;19929;-74
2023/01/01 04:09:02;;;;;;;;;;;14.90;99.90;;;;;;8380110;28;20431;-74
2023/01/01 04:13:05;;;;;;;;;;;14.70;99.90;;;;;;8388098;28;20015;-74
2023/01/01 04:17:07;;;;;;;;;;;14.20;99.90;;;;;;8385665;28;19925;-73
2023/01/01 04:21:10;;;;;;;;;;;13.50;99.90;;;;;;8387932;28;19928;-73
2023/01/01 04:25:12;;;;;;;;;;;13.10;99.90;;;;;;8388323;28;19931;-74
2023/01/01 04:29:14;;;;;;;;;;;13.00;99.90;;;;;;8397487;28;19925;-73
2023/01/01 04:33:16;;;;;;;;;;;12.80;99.90;;;;;;8391805;28;19956;-73
2023/01/01 04:37:17;;;;;;;;;;;12.70;99.90;;;;;;8365874;28;19931;-73
2023/01/01 04:41:19;;;;;;;;;;;12.60;99.90;;;;;;8370214;28;19924;-73
2023/01/01 04:45:20;;;;;;;;;;;12.50;99.90;;;;;;8387212;28;20615;-74
2023/01/01 04:49:22;;;;;;;;;;;12.50;99.90;;;;;;8386839;28;19924;-74
2023/01/01 04:53:24;;;;;;;;;;;12.50;99.90;;;;;;8385055;28;19932;-73
2023/01/01 04:57:28;;;;;;;;;;;12.60;99.90;;;;;;8385083;28;20269;-73
2023/01/01 05:01:30;;;;;;;;;;;12.60;99.90;;;;;;8365764;28;19925;-73
2023/01/01 05:05:31;;;;;;;;;;;12.80;99.90;;;;;;8384941;28;20296;-73
2023/01/01 05:09:33;;;;;;;;;;;12.90;99.90;;;;;;8390864;28;20368;-73
2023/01/01 05:13:35;;;;;;;;;;;13.10;99.90;;;;;;8386248;28;20398;-73
2023/01/01 05:17:37;;;;;;;;;;;13.20;99.90;;;;;;8382133;28;19932;-74
2023/01/01 05:21:39;;;;;;;;;;;13.20;99.90;;;;;;8382554;28;19928;-73
2023/01/01 05:25:43;;;;;;;;;;;13.30;99.90;;;;;;8401732;28;23465;-74
2023/01/01 05:29:44;;;;;;;;;;;13.30;99.90;;;;;;8385825;28;20375;-75
2023/01/01 05:33:46;;;;;;;;;;;13.30;99.90;;;;;;8366778;28;20032;-74
2023/01/01 05:37:48;;;;;;;;;;;13.30;99.90;;;;;;8381808;28;20014;-73
2023/01/01 05:41:50;;;;;;;;;;;13.30;99.90;;;;;;8375351;28;19925;-74
2023/01/01 05:46:02;;;;;;;;;;;13.30;99.90;;;;;;8390496;28;19932;-74
2023/01/01 05:50:04;;;;;;;;;;;13.30;99.90;;;;;;8381739;28;19925;-73
2023/01/01 05:54:05;;;;;;;;;;;13.30;99.90;;;;;;8387894;28;19913;-73
2023/01/01 05:58:07;;;;;;;;;;;13.30;99.90;;;;;;8387226;28;19932;-73
2023/01/01 06:02:08;;;;;;;;;;;13.30;99.90;;;;;;8380993;28;20410;-74
2023/01/01 06:06:38;;;;;;;;;;;13.20;99.90;;;;;;8395352;28;19940;-73
2023/01/01 06:10:40;;;;;;;;;;;13.20;99.90;;;;;;8388995;28;19935;-73
2023/01/01 06:14:41;;;;;;;;;;;13.10;99.90;;;;;;8376842;28;19943;-74
2023/01/01 06:18:43;;;;;;;;;;;13.10;99.90;;;;;;8388344;28;19967;-73
2023/01/01 06:22:45;;;;;;;;;;;13.10;99.90;;;;;;8377255;28;19963;-73
2023/01/01 06:26:46;;;;;;;;;;;13.10;99.90;;;;;;8374571;28;20015;-74
2023/01/01 06:30:48;;;;;;;;;;;13.00;99.90;;;;;;8385821;28;20530;-73
2023/01/01 06:34:50;;;;;;;;;;;12.90;99.90;;;;;;8394968;28;20418;-73
2023/01/01 06:38:53;;;;;;;;;;;12.90;99.90;;;;;;8387512;28;19944;-73
2023/01/01 06:42:55;;;;;;;;;;;12.80;99.90;;;;;;8368090;28;19987;-74
2023/01/01 06:46:56;;;;;;;;;;;12.80;99.90;;;;;;8384935;28;19954;-73
2023/01/01 06:51:03;;;;;;;;;;;12.80;99.90;;;;;;8370621;28;20247;-74
2023/01/01 06:55:05;;;;;;;;;;;12.80;99.90;;;;;;8384087;28;20394;-73
2023/01/01 06:59:07;;;;;;;;;;;12.80;99.90;;;;;;8387067;28;19924;-74
2023/01/01 07:03:09;;;;;;;;;;;12.80;99.90;;;;;;8380157;28;20303;-73
2023/01/01 07:07:11;;;;;;;;;;;12.70;99.90;;;;;;8388868;28;19969;-74
2023/01/01 07:11:12;;;;;;;;;;;12.70;99.90;;;;;;8388257;28;19928;-73
2023/01/01 07:15:14;;;;;;;;;;;12.60;99.90;;;;;;8371849;28;19924;-73
2023/01/01 07:19:16;;;;;;;;;;;12.50;99.90;;;;;;8400209;28;19925;-73
2023/01/01 07:23:18;;;;;;;;;;;12.50;99.90;;;;;;8383635;28;19968;-73
2023/01/01 07:27:19;;;;;;;;;;;12.40;99.90;;;;;;8383618;28;19932;-73
2023/01/01 07:31:21;;;;;;;;;;;12.30;99.90;;;;;;8394795;28;19925;-73
2023/01/01 07:35:23;;;;;;;;;;;12.30;99.90;;;;;;8364019;28;19924;-73
2023/01/01 07:39:24;;;;;;;;;;;12.20;99.90;;;;;;8392817;28;19977;-73
2023/01/01 07:43:26;;;;;;;;;;;12.10;99.90;;;;;;8362293;28;20051;-73
2023/01/01 07:47:28;;;;;;;;;;;12.10;99.90;;;;;;8377513;28;19935;-73
2023/01/01 07:51:29;;;;;;;;;;;12.00;99.90;;;;;;8380580;28;19925;-73
2023/01/01 07:55:33;;;;;;;;;;;12.00;99.90;;;;;;8385992;28;20007;-74
2023/01/01 07:59:35;;;;;;;;;;;12.00;99.90;;;;;;8377124;28;20395;-74
2023/01/01 08:03:36;;;;;;;;;;;12.00;99.90;;;;;;8388308;28;19932;-73
2023/01/01 08:07:38;;;;;;;;;;;12.00;99.90;;;;;;8403581;28;20330;-73
2023/01/01 08:11:40;;;;;;;;;;;12.00;99.90;;;;;;8385237;28;19936;-73
2023/01/01 08:15:41;;;;;;;;;;;11.90;99.90;;;;;;8395149;28;20120;-73
2023/01/01 08:19:48;;;;;;;;;;;11.90;99.90;;;;;;8372458;28;20027;-73
2023/01/01 08:23:49;;;;;;;;;;;11.90;99.90;;;;;;8376824;28;19924;-73
2023/01/01 08:27:51;;;;;;;;;;;11.90;99.90;;;;;;8364016;28;20387;-73
2023/01/01 08:31:53;;;;;;;;;;;11.90;99.90;;;;;;8378514;28;19983;-73
2023/01/01 08:35:54;;;;;;;;;;;11.90;99.90;;;;;;8381561;28;19932;-73
2023/01/01 08:39:56;;;;;;;;;;;11.80;99.90;;;;;;8380423;28;19929;-73
2023/01/01 08:43:58;;;;;;;;;;;11.80;99.90;;;;;;8379338;28;19928;-73
2023/01/01 08:47:59;;;;;;;;;;;11.90;99.90;;;;;;8369177;28;20376;-73
2023/01/01 08:52:01;;;;;;;;;;;11.90;99.90;;;;;;8389765;28;20268;-73
2023/01/01 08:56:07;;;;;;;;;;;11.90;99.90;;;;;;8383291;28;20019;-73
2023/01/01 09:00:09;;;;;;;;;;;11.90;99.90;;;;;;8359800;28;19925;-73
2023/01/01 09:04:12;;;;;;;;;;;11.90;99.90;;;;;;8384296;28;20330;-73
2023/01/01 09:08:16;;;;;;;;;;;11.90;99.90;;;;;;8377092;28;20637;-73
2023/01/01 09:12:17;;;;;;;;;;;12.00;99.90;;;;;;8377256;28;19932;-73
2023/01/01 09:16:19;;;;;;;;;;;12.00;99.90;;;;;;8375266;28;20002;-73
2023/01/01 09:20:21;;;;;;;;;;;12.00;99.90;;;;;;8387639;28;19931;-73
2023/01/01 09:24:23;;;;;;;;;;;12.00;99.90;;;;;;8377015;28;19972;-73
2023/01/01 09:28:28;;;;;;;;;;;12.00;99.90;;;;;;8364751;28;20007;-73
2023/01/01 09:32:29;;;;;;;;;;;12.00;99.90;;;;;;8374323;28;19932;-74
2023/01/01 09:41:40;;;;;;;;;;;12.10;99.90;;;;;;8382069;28;19923;-73
2023/01/01 09:55:51;;;;;;;;;;;12.40;99.90;;;;;;8390990;28;19923;-73
2023/01/01 09:59:53;;;;;;;;;;;12.50;99.90;;;;;;8388701;28;20032;-73
2023/01/01 10:04:14;;;;;;;;;;;12.60;99.90;;;;;;8369533;28;19932;-73
2023/01/01 10:08:20;;;;;;;;;;;12.70;99.90;;;;;;8389956;28;19932;-73
2023/01/01 10:12:30;;;;;;;;;;;12.70;99.90;;;;;;8383281;28;19924;-73
2023/01/01 10:16:48;;;;;;;;;;;12.70;99.90;;;;;;8393298;28;20337;-73
2023/01/01 10:21:19;;;;;;;;;;;12.80;99.90;;;;;;8366976;28;19928;-73
2023/01/01 10:25:23;;;;;;;;;;;12.80;99.90;;;;;;8358021;28;19933;-73
2023/01/01 10:29:27;;;;;;;;;;;12.80;99.90;;;;;;8382208;28;19934;-72
2023/01/01 10:33:29;;;;;;;;;;;12.90;99.90;;;;;;8399006;28;19960;-73
2023/01/01 10:37:34;;;;;;;;;;;12.90;99.90;;;;;;8390816;28;19935;-73
2023/01/01 10:41:36;;;;;;;;;;;13.00;99.90;;;;;;8375817;28;19932;-73
2023/01/01 10:45:45;;;;;;;;;;;13.10;99.90;;;;;;8379388;28;19928;-72
2023/01/01 10:49:54;;;;;;;;;;;13.20;99.90;;;;;;8385704;28;19956;-72
2023/01/01 10:53:56;;;;;;;;;;;13.40;99.90;;;;;;8373442;28;20148;-73
2023/01/01 10:57:58;;;;;;;;;;;13.40;99.90;;;;;;8386501;28;20295;-73
2023/01/01 11:02:17;;;;;;;;;;;13.30;99.90;;;;;;8380540;28;20400;-73
2023/01/01 11:06:24;;;;;;;;;;;13.30;99.90;;;;;;8382249;28;20364;-73
2023/01/01 11:10:27;;;;;;;;;;;13.20;99.90;;;;;;8387247;28;19924;-73
2023/01/01 11:14:41;;;;;;;;;;;13.20;99.90;;;;;;8387260;28;20144;-73
2023/01/01 11:18:43;;;;;;;;;;;13.20;99.90;;;;;;8385677;28;20368;-73
2023/01/01 11:22:47;;;;;;;;;;;13.20;99.90;;;;;;8381554;28;19932;-73
2023/01/01 11:26:50;;;;;;;;;;;13.10;99.90;;;;;;8392054;28;19932;-73
2023/01/01 11:31:00;;;;;;;;;;;13.00;99.90;;;;;;8384424;28;19975;-72
2023/01/01 11:35:07;;;;;;;;;;;12.90;99.90;;;;;;8377899;28;19929;-73
2023/01/01 11:39:20;;;;;;;;;;;12.90;99.90;;;;;;8373046;28;19931;-73
2023/01/01 11:43:24;;;;;;;;;;;12.90;99.90;;;;;;8372543;28;20011;-73
2023/01/01 11:47:38;;;;;;;;;;;12.90;99.90;;;;;;8384038;28;19971;-73
2023/01/01 11:51:40;;;;;;;;;;;12.90;99.90;;;;;;8363205;28;20064;-72
2023/01/01 11:55:43;;;;;;;;;;;12.80;99.90;;;;;;8356437;28;19932;-73
2023/01/01 11:59:49;;;;;;;;;;;12.80;99.90;;;;;;8372902;28;20020;-73
2023/01/01 12:03:54;;;;;;;;;;;12.90;99.90;;;;;;8373565;28;21016;-73
2023/01/01 12:07:57;;;;;;;;;;;12.90;99.90;;;;;;8381402;28;20313;-73
2023/01/01 12:12:03;;;;;;;;;;;13.00;99.90;;;;;;8377078;28;19924;-72
2023/01/01 12:16:14;;;;;;;;;;;13.10;99.90;;;;;;8382971;28;20635;-74
2023/01/01 12:20:23;;;;;;;;;;;13.20;99.90;;;;;;8383334;28;19978;-73
2023/01/01 12:24:32;;;;;;;;;;;13.50;99.90;;;;;;8386912;28;19924;-73
2023/01/01 12:28:41;;;;;;;;;;;13.60;99.90;;;;;;8384371;28;20388;-73
2023/01/01 12:33:06;;;;;;;;;;;13.70;99.90;;;;;;8387452;28;19979;-73
2023/01/01 12:37:09;;;;;;;;;;;13.70;99.90;;;;;;8383377;28;19925;-73
2023/01/01 12:41:12;;;;;;;;;;;13.60;99.90;;;;;;8380557;28;20406;-73
2023/01/01 12:45:37;;;;;;;;;;;13.60;99.90;;;;;;8382652;28;19932;-73
2023/01/01 12:49:57;;;;;;;;;;;13.60;99.90;;;;;;8382436;28;20006;-73
2023/01/01 12:54:18;;;;;;;;;;;13.70;99.90;;;;;;8384849;28;19986;-74
2023/01/01 12:58:28;;;;;;;;;;;13.80;99.90;;;;;;8376442;28;19932;-73
2023/01/01 13:02:33;;;;;;;;;;;13.80;99.90;;;;;;8386637;28;19925;-73
2023/01/01 13:06:38;;;;;;;;;;;13.70;99.90;;;;;;8364401;28;19928;-73
2023/01/01 13:10:41;;;;;;;;;;;13.70;99.90;;;;;;8385556;28;20327;-73
2023/01/01 13:14:44;;;;;;;;;;;13.60;99.90;;;;;;8379560;28;20347;-73
2023/01/01 13:18:47;;;;;;;;;;;13.60;99.90;;;;;;8378050;28;19938;-73
2023/01/01 13:22:49;;;;;;;;;;;13.60;99.90;;;;;;8371813;28;19951;-73
2023/01/01 13:26:51;;;;;;;;;;;13.50;99.90;;;;;;8380269;28;19933;-73
2023/01/01 13:30:53;;;;;;;;;;;13.50;99.90;;;;;;8384321;28;19975;-73
2023/01/01 13:34:59;;;;;;;;;;;13.50;99.90;;;;;;8387760;28;19943;-73
2023/01/01 13:39:01;;;;;;;;;;;13.50;99.90;;;;;;8384632;28;19928;-72
2023/01/01 13:43:05;;;;;;;;;;;13.40;99.90;;;;;;8382171;28;20391;-73
2023/01/01 13:47:30;;;;;;;;;;;13.40;99.90;;;;;;8363706;28;19932;-72
2023/01/01 13:51:50;;;;;;;;;;;13.40;99.90;;;;;;8355216;28;19925;-73
2023/01/01 13:56:27;;;;;;;;;;;13.30;99.90;;;;;;8383999;28;19924;-73
2023/01/01 14:00:29;;;;;;;;;;;13.30;99.90;;;;;;8380339;28;19925;-72
2023/01/01 14:04:38;;;;;;;;;;;13.20;99.90;;;;;;8387768;28;19928;-74
2023/01/01 14:08:40;;;;;;;;;;;13.20;99.90;;;;;;8384849;28;20020;-73
2023/01/01 14:12:41;;;;;;;;;;;13.20;99.90;;;;;;8373570;28;20020;-73
2023/01/01 14:16:43;;;;;;;;;;;13.20;99.90;;;;;;8376733;28;20257;-73
2023/01/01 14:20:46;;;;;;;;;;;13.10;99.90;;;;;;8385159;28;19931;-73
2023/01/01 14:24:48;;;;;;;;;;;13.10;99.90;;;;;;8378798;28;20016;-73
2023/01/01 14:28:57;;;;;;;;;;;13.10;99.90;;;;;;8381305;28;19938;-73
2023/01/01 14:32:59;;;;;;;;;;;13.10;99.90;;;;;;8365707;28;20183;-73
2023/01/01 14:37:04;;;;;;;;;;;13.10;99.90;;;;;;8369039;28;20392;-72
2023/01/01 14:41:15;;;;;;;;;;;13.10;99.90;;;;;;8385686;28;19964;-73
2023/01/01 14:45:17;;;;;;;;;;;13.10;99.90;;;;;;8381979;28;19952;-73
2023/01/01 14:49:19;;;;;;;;;;;13.10;99.90;;;;;;8372709;28;19932;-73
2023/01/01 14:53:28;;;;;;;;;;;13.00;99.90;;;;;;8398604;28;19931;-73
2023/01/01 14:57:31;;;;;;;;;;;13.00;99.90;;;;;;8386194;28;20006;-74
2023/01/01 15:01:33;;;;;;;;;;;13.00;99.90;;;;;;8389428;28;19931;-74
2023/01/01 15:05:35;;;;;;;;;;;13.00;99.90;;;;;;8392888;28;19924;-73
2023/01/01 15:09:37;;;;;;;;;;;12.90;99.90;;;;;;8395867;28;20388;-74
2023/01/01 15:13:39;;;;;;;;;;;12.90;99.90;;;;;;8394724;28;19936;-73
2023/01/01 15:17:44;;;;;;;;;;;12.90;99.90;;;;;;8378859;28;19928;-74
2023/01/01 15:21:46;;;;;;;;;;;12.80;99.90;;;;;;8410506;28;20287;-74
2023/01/01 15:25:48;;;;;;;;;;;12.80;99.90;;;;;;8401985;28;19924;-73
2023/01/01 15:29:52;;;;;;;;;;;12.80;99.90;;;;;;8400817;28;19926;-73
2023/01/01 15:33:54;;;;;;;;;;;12.80;99.90;;;;;;8385309;28;19929;-73
2023/01/01 15:37:57;;;;;;;;;;;12.80;99.90;;;;;;8384787;28;19924;-73
2023/01/01 15:41:59;;;;;;;;;;;12.70;99.90;;;;;;8362347;28;19931;-73
2023/01/01 15:46:16;;;;;;;;;;;12.70;99.90;;;;;;8388176;28;20642;-73
2023/01/01 15:50:25;;;;;;;;;;;12.70;99.90;;;;;;8393035;28;20339;-73
2023/01/01 15:54:27;;;;;;;;;;;12.70;99.90;;;;;;8387134;28;20344;-73
2023/01/01 15:58:34;;;;;;;;;;;12.70;99.90;;;;;;8389133;28;19924;-73
2023/01/01 16:02:36;;;;;;;;;;;12.60;99.90;;;;;;8367031;28;19925;-73
2023/01/01 16:06:43;;;;;;;;;;;12.60;99.90;;;;;;8359723;28;20380;-73
2023/01/01 16:10:49;;;;;;;;;;;12.60;99.90;;;;;;8362484;28;19932;-73
2023/01/01 16:14:51;;;;;;;;;;;12.60;99.90;;;;;;8349321;28;20388;-72
2023/01/01 16:18:54;;;;;;;;;;;12.60;99.90;;;;;;8359989;28;19939;-74
2023/01/01 16:22:55;;;;;;;;;;;12.60;99.90;;;;;;8356905;28;19983;-73
2023/01/01 16:26:58;;;;;;;;;;;12.60;99.90;;;;;;8361309;28;19931;-73
2023/01/01 16:31:00;;;;;;;;;;;12.60;99.90;;;;;;8358942;28;19924;-73
2023/01/01 16:35:04;;;;;;;;;;;12.60;99.90;;;;;;8362045;28;19936;-73
2023/01/01 16:39:12;;;;;;;;;;;12.60;99.90;;;;;;8362678;28;19925;-73
2023/01/01 16:43:17;;;;;;;;;;;12.60;99.90;;;;;;8361983;28;19933;-73
2023/01/01 16:47:21;;;;;;;;;;;12.60;99.90;;;;;;8359031;28;19982;-73
2023/01/01 16:51:25;;;;;;;;;;;12.60;99.90;;;;;;8360538;28;20011;-73
2023/01/01 16:55:27;;;;;;;;;;;12.70;99.90;;;;;;8364201;28;19976;-73
2023/01/01 16:59:29;;;;;;;;;;;12.70;99.90;;;;;;8360589;28;19967;-73
2023/01/01 17:03:30;;;;;;;;;;;12.70;99.90;;;;;;8362019;28;19925;-73
2023/01/01 17:07:32;;;;;;;;;;;12.70;99.90;;;;;;8341822;28;19939;-73
2023/01/01 17:11:34;;;;;;;;;;;12.70;99.90;;;;;;8381682;28;24831;-73
2023/01/01 17:15:36;;;;;;;;;;;12.70;99.90;;;;;;8369095;28;19940;-73
2023/01/01 17:19:38;;;;;;;;;;;12.60;99.90;;;;;;8363606;28;20361;-73
2023/01/01 17:23:42;;;;;;;;;;;12.60;99.90;;;;;;8355660;28;19933;-73
2023/01/01 17:27:44;;;;;;;;;;;12.60;99.90;;;;;;8358629;28;19932;-73
2023/01/01 17:31:46;;;;;;;;;;;12.60;99.90;;;;;;8347654;28;20026;-73
2023/01/01 17:35:47;;;;;;;;;;;12.60;99.90;;;;;;8360128;28;19929;-73
2023/01/01 17:39:49;;;;;;;;;;;12.60;99.90;;;;;;8356757;28;19924;-73
2023/01/01 17:43:51;;;;;;;;;;;12.50;99.90;;;;;;8357601;28;19924;-73
2023/01/01 17:47:54;;;;;;;;;;;12.40;99.90;;;;;;8358082;28;19971;-73
2023/01/01 17:51:56;;;;;;;;;;;12.40;99.90;;;;;;8373056;28;19935;-73
2023/01/01 17:55:58;;;;;;;;;;;12.30;99.90;;;;;;8366272;28;19933;-73
2023/01/01 18:00:01;;;;;;;;;;;12.30;99.90;;;;;;8364374;28;19932;-73
2023/01/01 18:04:04;;;;;;;;;;;12.20;99.90;;;;;;8370270;28;19933;-73
2023/01/01 18:08:06;;;;;;;;;;;12.10;99.90;;;;;;8367946;28;19931;-73
2023/01/01 18:12:07;;;;;;;;;;;12.10;99.90;;;;;;8361747;28;19930;-73
2023/01/01 18:16:09;;;;;;;;;;;12.10;99.90;;;;;;8360892;28;20395;-73
2023/01/01 18:20:11;;;;;;;;;;;12.00;99.90;;;;;;8362972;28;20356;-73
2023/01/01 18:24:13;;;;;;;;;;;12.00;99.90;;;;;;8363803;28;20423;-73
2023/01/01 18:28:18;;;;;;;;;;;11.90;99.90;;;;;;8360174;28;20024;-73
2023/01/01 18:32:19;;;;;;;;;;;11.90;99.90;;;;;;8367035;28;19929;-73
2023/01/01 18:36:23;;;;;;;;;;;11.90;99.90;;;;;;8359871;28;20270;-73
2023/01/01 18:40:28;;;;;;;;;;;11.80;99.90;;;;;;8362824;28;20304;-73
2023/01/01 18:44:31;;;;;;;;;;;11.80;99.90;;;;;;8360584;28;19929;-73
2023/01/01 18:48:32;;;;;;;;;;;11.70;99.90;;;;;;8351946;28;19928;-73
2023/01/01 18:52:34;;;;;;;;;;;11.70;99.90;;;;;;8360804;28;19928;-73
2023/01/01 18:56:36;;;;;;;;;;;11.60;99.90;;;;;;8375813;28;20289;-73
2023/01/01 19:00:38;;;;;;;;;;;11.60;99.90;;;;;;8372344;28;19924;-73
2023/01/01 19:04:40;;;;;;;;;;;11.60;99.90;;;;;;8349547;28;20333;-73
2023/01/01 19:08:42;;;;;;;;;;;11.60;99.90;;;;;;8361624;28;20095;-73
2023/01/01 19:12:44;;;;;;;;;;;11.60;99.90;;;;;;8361278;28;19929;-73
2023/01/01 19:16:46;;;;;;;;;;;11.60;99.90;;;;;;8339979;28;19932;-73
2023/01/01 19:20:49;;;;;;;;;;;11.60;99.90;;;;;;8362435;28;19971;-73
2023/01/01 19:24:51;;;;;;;;;;;11.50;99.90;;;;;;8364916;28;19925;-73
2023/01/01 19:28:53;;;;;;;;;;;11.50;99.90;;;;;;8358449;28;20387;-73
2023/01/01 19:32:55;;;;;;;;;;;11.50;99.90;;;;;;8367977;28;20016;-73
2023/01/01 19:36:57;;;;;;;;;;;11.50;99.90;;;;;;8361995;28;19972;-73
2023/01/01 19:40:58;;;;;;;;;;;11.50;99.90;;;;;;8362999;28;19928;-73
2023/01/01 19:45:01;;;;;;;;;;;11.40;99.90;;;;;;8360105;28;19924;-72
2023/01/01 19:49:03;;;;;;;;;;;11.40;99.90;;;;;;8359909;28;19929;-73
2023/01/01 19:53:06;;;;;;;;;;;11.40;99.90;;;;;;8344553;28;20273;-73
2023/01/01 19:57:08;;;;;;;;;;;11.40;99.90;;;;;;8364763;28;20312;-73
2023/01/01 20:01:12;;;;;;;;;;;11.40;99.90;;;;;;8365459;28;19929;-73
2023/01/01 20:05:14;;;;;;;;;;;11.40;99.90;;;;;;8358604;28;19937;-73
2023/01/01 20:09:16;;;;;;;;;;;11.40;99.90;;;;;;8348338;28;20375;-73
2023/01/01 20:13:17;;;;;;;;;;;11.40;99.90;;;;;;8346169;28;20377;-73
2023/01/01 20:17:19;;;;;;;;;;;11.40;99.90;;;;;;8358380;28;20063;-73
2023/01/01 20:25:41;;;;;;;;;;;11.40;99.90;;;;;;8360657;28;19928;-73
2023/01/01 20:29:45;;;;;;;;;;;11.40;99.90;;;;;;8340400;28;19929;-73
2023/01/01 20:33:46;;;;;;;;;;;11.40;99.90;;;;;;8362606;28;19924;-73
2023/01/01 20:37:48;;;;;;;;;;;11.40;99.90;;;;;;8359854;28;19960;-73
2023/01/01 20:41:50;;;;;;;;;;;11.30;99.90;;;;;;8344453;28;20398;-73
2023/01/01 20:45:51;;;;;;;;;;;11.30;99.90;;;;;;8339645;28;20023;-73
2023/01/01 20:49:53;;;;;;;;;;;11.30;99.90;;;;;;8361245;28;19956;-73
2023/01/01 20:53:55;;;;;;;;;;;11.30;99.90;;;;;;8365239;28;20023;-73
2023/01/01 20:57:56;;;;;;;;;;;11.30;99.90;;;;;;8365616;28;19963;-73
2023/01/01 21:01:58;;;;;;;;;;;11.30;99.90;;;;;;8342128;28;19932;-73
2023/01/01 21:06:00;;;;;;;;;;;11.30;99.90;;;;;;8355794;28;19971;-73
2023/01/01 21:10:02;;;;;;;;;;;11.30;99.90;;;;;;8357731;28;20014;-73
2023/01/01 21:14:03;;;;;;;;;;;11.30;99.90;;;;;;8359041;28;19935;-74
2023/01/01 21:18:05;;;;;;;;;;;11.30;99.90;;;;;;8361661;28;20075;-73
2023/01/01 21:22:11;;;;;;;;;;;11.30;99.90;;;;;;8362472;28;20278;-74
2023/01/01 21:26:18;;;;;;;;;;;11.30;99.90;;;;;;8355927;28;19929;-73
2023/01/01 21:30:20;;;;;;;;;;;11.30;99.90;;;;;;8363735;28;19928;-73
2023/01/01 21:34:36;;;;;;;;;;;11.30;99.90;;;;;;8365512;28;19943;-74
2023/01/01 21:38:37;;;;;;;;;;;11.30;99.90;;;;;;8350493;28;19986;-74
2023/01/01 21:42:39;;;;;;;;;;;11.30;99.90;;;;;;8360782;28;20396;-74
2023/01/01 21:46:45;;;;;;;;;;;11.30;99.90;;;;;;8358975;28;20019;-73
2023/01/01 21:50:48;;;;;;;;;;;11.30;99.90;;;;;;8363667;28;19932;-74
2023/01/01 21:54:51;;;;;;;;;;;11.30;99.90;;;;;;8341030;28;20303;-72
2023/01/01 22:03:20;;;;;;;;;;;11.30;99.90;;;;;;8372185;28;19925;-73
2023/01/01 22:07:35;;;;;;;;;;;11.30;99.90;;;;;;8387894;28;19932;-73
2023/01/01 22:12:12;;;;;;;;;;;11.30;99.90;;;;;;8386330;28;20360;-73
2023/01/01 22:16:14;;;;;;;;;;;11.30;99.90;;;;;;8381801;28;19968;-73
2023/01/01 22:20:22;;;;;;;;;;;11.20;99.90;;;;;;8370260;28;19969;-73
2023/01/01 22:24:28;;;;;;;;;;;11.20;99.90;;;;;;8384766;28;19971;-73
2023/01/01 22:28:39;;;;;;;;;;;11.20;99.90;;;;;;8396505;28;19924;-73
2023/01/01 22:32:40;;;;;;;;;;;11.20;99.90;;;;;;8390035;28;19968;-73
2023/01/01 22:36:42;;;;;;;;;;;11.20;99.90;;;;;;8396504;28;19924;-73
2023/01/01 22:40:47;;;;;;;;;;;11.20;99.90;;;;;;8364451;28;19929;-73
2023/01/01 22:44:56;;;;;;;;;;;11.20;99.90;;;;;;8375895;28;19924;-73
2023/01/01 22:49:09;;;;;;;;;;;11.20;99.90;;;;;;8384079;28;19929;-73
2023/01/01 22:53:10;;;;;;;;;;;11.20;99.90;;;;;;8387769;28;19928;-73
2023/01/01 22:57:12;;;;;;;;;;;11.30;99.90;;;;;;8387355;28;20439;-73
2023/01/01 23:01:13;;;;;;;;;;;11.30;99.90;;;;;;8386868;28;19932;-73
2023/01/01 23:05:15;;;;;;;;;;;11.30;99.90;;;;;;8374424;28;20406;-73
2023/01/01 23:09:17;;;;;;;;;;;11.30;99.90;;;;;;8390488;28;19925;-73
2023/01/01 23:17:39;;;;;;;;;;;11.30;99.90;;;;;;8389816;28;20011;-73
2023/01/01 23:21:41;;;;;;;;;;;11.30;99.90;;;;;;8394869;28;19928;-73
2023/01/01 23:25:42;;;;;;;;;;;11.30;99.90;;;;;;8385327;28;19925;-73
2023/01/01 23:29:45;;;;;;;;;;;11.30;99.90;;;;;;8392256;28;19929;-73
2023/01/01 23:33:47;;;;;;;;;;;11.40;99.90;;;;;;8374273;28;19979;-73
2023/01/01 23:52:52;;;;;;;;;;;11.50;99.90;;;;;;8388099;28;19970;-73
2023/01/01 23:56:54;;;;;;;;;;;11.50;99.90;;;;;;8374552;28;19928;-73
